sensor_id;sensor_type;location;lat;lon;timestamp;temperature;humidity
51559;DHT22;61650;48.882;2.092;2023-05-07T00:02:05;13.70;99.90
51559;DHT22;61650;48.882;2.092;2023-05-07T00:04:31;13.80;99.90
51559;DHT22;61650;48.882;2.092;2023-05-07T00:07:02;13.70;99.90
51559;DHT22;61650;48.882;2.092;2023-05-07T00:09:28;13.70;99.90
51559;DHT22;61650;48.882;2.092;2023-05-07T00:11:53;13.60;99.90
51559;DHT22;61650;48.882;2.092;2023-05-07T00:14:19;13.60;99.90
51559;DHT22;61650;48.882;2.092;2023-05-07T00:16:44;13.60;99.90
51559;DHT22;61650;48.882;2.092;2023-05-07T00:19:10;13.60;99.90
51559;DHT22;61650;48.882;2.092;2023-05-07T00:21:35;13.60;99.90
51559;DHT22;61650;48.882;2.092;2023-05-07T00:24:01;13.60;99.90
51559;DHT22;61650;48.882;2.092;2023-05-07T00:26:26;13.60;99.90
51559;DHT22;61650;48.882;2.092;2023-05-07T00:28:52;13.60;99.90
51559;DHT22;61650;48.882;2.092;2023-05-07T00:31:17;13.70;99.90
51559;DHT22;61650;48.882;2.092;2023-05-07T00:33:43;13.70;99.90
51559;DHT22;61650;48.882;2.092;2023-05-07T00:36:09;13.70;99.90
51559;DHT22;61650;48.882;2.092;2023-05-07T00:38:34;13.70;99.90
51559;DHT22;61650;48.882;2.092;2023-05-07T00:41:00;13.60;99.90
51559;DHT22;61650;48.882;2.092;2023-05-07T00:43:27;13.70;99.90
51559;DHT22;61650;48.882;2.092;2023-05-07T00:45:53;13.70;99.90
51559;DHT22;61650;48.882;2.092;2023-05-07T00:48:19;13.70;99.90
51559;DHT22;61650;48.882;2.092;2023-05-07T00:50:45;13.70;99.90
51559;DHT22;61650;48.882;2.092;2023-05-07T00:53:12;13.70;99.90
51559;DHT22;61650;48.882;2.092;2023-05-07T00:55:38;13.70;99.90
51559;DHT22;61650;48.882;2.092;2023-05-07T00:58:04;13.60;99.90
51559;DHT22;61650;48.882;2.092;2023-05-07T01:00:31;13.70;99.90
51559;DHT22;61650;48.882;2.092;2023-05-07T01:02:57;13.60;99.90
51559;DHT22;61650;48.882;2.092;2023-05-07T01:05:23;13.70;99.90
51559;DHT22;61650;48.882;2.092;2023-05-07T01:07:50;13.70;99.90
51559;DHT22;61650;48.882;2.092;2023-05-07T01:10:17;13.60;99.90
51559;DHT22;61650;48.882;2.092;2023-05-07T01:12:44;13.60;99.90
51559;DHT22;61650;48.882;2.092;2023-05-07T01:15:11;13.60;99.90
51559;DHT22;61650;48.882;2.092;2023-05-07T01:17:39;13.70;99.90
51559;DHT22;61650;48.882;2.092;2023-05-07T01:20:06;13.70;99.90
51559;DHT22;61650;48.882;2.092;2023-05-07T01:22:37;13.70;99.90
51559;DHT22;61650;48.882;2.092;2023-05-07T01:25:07;13.70;99.90
51559;DHT22;61650;48.882;2.092;2023-05-07T01:27:33;13.70;99.90
51559;DHT22;61650;48.882;2.092;2023-05-07T01:30:01;13.60;99.90
51559;DHT22;61650;48.882;2.092;2023-05-07T01:32:33;13.60;99.90
51559;DHT22;61650;48.882;2.092;2023-05-07T01:35:01;13.60;99.90
51559;DHT22;61650;48.882;2.092;2023-05-07T01:37:27;13.70;99.90
51559;DHT22;61650;48.882;2.092;2023-05-07T01:39:53;13.70;99.90
51559;DHT22;61650;48.882;2.092;2023-05-07T01:42:20;13.70;99.90
51559;DHT22;61650;48.882;2.092;2023-05-07T01:44:46;13.70;99.90
51559;DHT22;61650;48.882;2.092;2023-05-07T01:47:12;13.70;99.90
51559;DHT22;61650;48.882;2.092;2023-05-07T01:49:39;13.80;99.90
51559;DHT22;61650;48.882;2.092;2023-05-07T01:52:05;13.80;99.90
51559;DHT22;61650;48.882;2.092;2023-05-07T01:54:30;13.70;99.90
51559;DHT22;61650;48.882;2.092;2023-05-07T01:56:56;13.70;99.90
51559;DHT22;61650;48.882;2.092;2023-05-07T01:59:22;13.70;99.90
51559;DHT22;61650;48.882;2.092;2023-05-07T02:01:48;13.70;99.90
51559;DHT22;61650;48.882;2.092;2023-05-07T02:04:14;13.70;99.90
51559;DHT22;61650;48.882;2.092;2023-05-07T02:06:40;13.70;99.90
51559;DHT22;61650;48.882;2.092;2023-05-07T02:09:05;13.70;99.90
51559;DHT22;61650;48.882;2.092;2023-05-07T02:11:31;13.70;99.90
51559;DHT22;61650;48.882;2.092;2023-05-07T02:13:57;13.80;99.90
51559;DHT22;61650;48.882;2.092;2023-05-07T02:16:22;13.80;99.90
51559;DHT22;61650;48.882;2.092;2023-05-07T02:18:49;13.70;99.90
51559;DHT22;61650;48.882;2.092;2023-05-07T02:21:14;13.70;99.90
51559;DHT22;61650;48.882;2.092;2023-05-07T02:23:40;13.70;99.90
51559;DHT22;61650;48.882;2.092;2023-05-07T02:26:05;13.70;99.90
51559;DHT22;61650;48.882;2.092;2023-05-07T02:28:31;13.70;99.90
51559;DHT22;61650;48.882;2.092;2023-05-07T02:30:57;13.60;99.90
51559;DHT22;61650;48.882;2.092;2023-05-07T02:33:25;13.60;99.90
51559;DHT22;61650;48.882;2.092;2023-05-07T02:35:50;13.60;99.90
51559;DHT22;61650;48.882;2.092;2023-05-07T02:38:17;13.60;99.90
51559;DHT22;61650;48.882;2.092;2023-05-07T02:40:43;13.60;99.90
51559;DHT22;61650;48.882;2.092;2023-05-07T02:43:09;13.60;99.90
51559;DHT22;61650;48.882;2.092;2023-05-07T02:45:34;13.60;99.90
51559;DHT22;61650;48.882;2.092;2023-05-07T02:48:01;13.60;99.90
51559;DHT22;61650;48.882;2.092;2023-05-07T02:50:27;13.60;99.90
51559;DHT22;61650;48.882;2.092;2023-05-07T02:52:52;13.60;99.90
51559;DHT22;61650;48.882;2.092;2023-05-07T02:55:18;13.50;99.90
51559;DHT22;61650;48.882;2.092;2023-05-07T02:57:43;13.50;99.90
51559;DHT22;61650;48.882;2.092;2023-05-07T03:00:27;13.60;99.90
51559;DHT22;61650;48.882;2.092;2023-05-07T03:02:53;13.60;99.90
51559;DHT22;61650;48.882;2.092;2023-05-07T03:05:18;13.60;99.90
51559;DHT22;61650;48.882;2.092;2023-05-07T03:07:44;13.60;99.90
51559;DHT22;61650;48.882;2.092;2023-05-07T03:10:11;13.50;99.90
51559;DHT22;61650;48.882;2.092;2023-05-07T03:12:37;13.60;99.90
51559;DHT22;61650;48.882;2.092;2023-05-07T03:15:03;13.60;99.90
51559;DHT22;61650;48.882;2.092;2023-05-07T03:17:28;13.60;99.90
51559;DHT22;61650;48.882;2.092;2023-05-07T03:19:54;13.60;99.90
51559;DHT22;61650;48.882;2.092;2023-05-07T03:22:20;13.50;99.90
51559;DHT22;61650;48.882;2.092;2023-05-07T03:24:45;13.50;99.90
51559;DHT22;61650;48.882;2.092;2023-05-07T03:27:11;13.50;99.90
51559;DHT22;61650;48.882;2.092;2023-05-07T03:29:37;13.50;99.90
51559;DHT22;61650;48.882;2.092;2023-05-07T03:32:02;13.40;99.90
51559;DHT22;61650;48.882;2.092;2023-05-07T03:34:28;13.40;99.90
51559;DHT22;61650;48.882;2.092;2023-05-07T03:36:53;13.40;99.90
51559;DHT22;61650;48.882;2.092;2023-05-07T03:39:19;13.30;99.90
51559;DHT22;61650;48.882;2.092;2023-05-07T03:41:44;13.40;99.90
51559;DHT22;61650;48.882;2.092;2023-05-07T03:44:10;13.40;99.90
51559;DHT22;61650;48.882;2.092;2023-05-07T03:46:36;13.40;99.90
51559;DHT22;61650;48.882;2.092;2023-05-07T03:49:01;13.40;99.90
51559;DHT22;61650;48.882;2.092;2023-05-07T03:51:27;13.50;99.90
51559;DHT22;61650;48.882;2.092;2023-05-07T03:53:52;13.40;99.90
51559;DHT22;61650;48.882;2.092;2023-05-07T03:56:18;13.40;99.90
51559;DHT22;61650;48.882;2.092;2023-05-07T03:58:44;13.40;99.90
51559;DHT22;61650;48.882;2.092;2023-05-07T04:01:10;13.40;99.90
51559;DHT22;61650;48.882;2.092;2023-05-07T04:03:36;13.40;99.90
51559;DHT22;61650;48.882;2.092;2023-05-07T04:06:01;13.30;99.90
51559;DHT22;61650;48.882;2.092;2023-05-07T04:08:27;13.30;99.90
51559;DHT22;61650;48.882;2.092;2023-05-07T04:10:56;13.30;99.90
51559;DHT22;61650;48.882;2.092;2023-05-07T04:13:22;13.30;99.90
51559;DHT22;61650;48.882;2.092;2023-05-07T04:15:48;13.30;99.90
51559;DHT22;61650;48.882;2.092;2023-05-07T04:18:14;13.30;99.90
51559;DHT22;61650;48.882;2.092;2023-05-07T04:20:40;13.30;99.90
51559;DHT22;61650;48.882;2.092;2023-05-07T04:23:06;13.20;99.90
51559;DHT22;61650;48.882;2.092;2023-05-07T04:25:32;13.20;99.90
51559;DHT22;61650;48.882;2.092;2023-05-07T04:27:58;13.10;99.90
51559;DHT22;61650;48.882;2.092;2023-05-07T04:30:24;13.10;99.90
51559;DHT22;61650;48.882;2.092;2023-05-07T04:32:50;13.20;99.90
51559;DHT22;61650;48.882;2.092;2023-05-07T04:35:16;13.20;99.90
51559;DHT22;61650;48.882;2.092;2023-05-07T04:37:42;13.20;99.90
51559;DHT22;61650;48.882;2.092;2023-05-07T04:40:07;13.20;99.90
51559;DHT22;61650;48.882;2.092;2023-05-07T04:42:33;13.20;99.90
51559;DHT22;61650;48.882;2.092;2023-05-07T04:44:58;13.20;99.90
51559;DHT22;61650;48.882;2.092;2023-05-07T04:47:25;13.20;99.90
51559;DHT22;61650;48.882;2.092;2023-05-07T04:49:51;13.20;99.90
51559;DHT22;61650;48.882;2.092;2023-05-07T04:52:16;13.20;99.90
51559;DHT22;61650;48.882;2.092;2023-05-07T04:54:42;13.30;99.90
51559;DHT22;61650;48.882;2.092;2023-05-07T04:57:07;13.20;99.90
51559;DHT22;61650;48.882;2.092;2023-05-07T04:59:33;13.20;99.90
51559;DHT22;61650;48.882;2.092;2023-05-07T05:01:59;13.20;99.90
51559;DHT22;61650;48.882;2.092;2023-05-07T05:04:24;13.20;99.90
51559;DHT22;61650;48.882;2.092;2023-05-07T05:06:50;13.20;99.90
51559;DHT22;61650;48.882;2.092;2023-05-07T05:09:15;13.20;99.90
51559;DHT22;61650;48.882;2.092;2023-05-07T05:11:41;13.20;99.90
51559;DHT22;61650;48.882;2.092;2023-05-07T05:14:07;13.30;99.90
51559;DHT22;61650;48.882;2.092;2023-05-07T05:16:32;13.20;99.90
51559;DHT22;61650;48.882;2.092;2023-05-07T05:18:59;13.20;99.90
51559;DHT22;61650;48.882;2.092;2023-05-07T05:21:24;13.20;99.90
51559;DHT22;61650;48.882;2.092;2023-05-07T05:23:50;13.20;99.90
51559;DHT22;61650;48.882;2.092;2023-05-07T05:26:16;13.30;99.90
51559;DHT22;61650;48.882;2.092;2023-05-07T05:28:41;13.30;99.90
51559;DHT22;61650;48.882;2.092;2023-05-07T05:31:07;13.30;99.90
51559;DHT22;61650;48.882;2.092;2023-05-07T05:33:32;13.30;99.90
51559;DHT22;61650;48.882;2.092;2023-05-07T05:35:58;13.30;99.90
51559;DHT22;61650;48.882;2.092;2023-05-07T05:38:23;13.30;99.90
51559;DHT22;61650;48.882;2.092;2023-05-07T05:40:49;13.30;99.90
51559;DHT22;61650;48.882;2.092;2023-05-07T05:43:14;13.30;99.90
51559;DHT22;61650;48.882;2.092;2023-05-07T05:45:40;13.30;99.90
51559;DHT22;61650;48.882;2.092;2023-05-07T05:48:06;13.20;99.90
51559;DHT22;61650;48.882;2.092;2023-05-07T05:50:31;13.20;99.90
51559;DHT22;61650;48.882;2.092;2023-05-07T05:52:57;13.20;99.90
51559;DHT22;61650;48.882;2.092;2023-05-07T05:55:23;13.20;99.90
51559;DHT22;61650;48.882;2.092;2023-05-07T05:57:49;13.20;99.90
51559;DHT22;61650;48.882;2.092;2023-05-07T06:00:16;13.30;99.90
51559;DHT22;61650;48.882;2.092;2023-05-07T06:02:41;13.30;99.90
51559;DHT22;61650;48.882;2.092;2023-05-07T06:05:08;13.30;99.90
51559;DHT22;61650;48.882;2.092;2023-05-07T06:07:34;13.30;99.90
51559;DHT22;61650;48.882;2.092;2023-05-07T06:10:03;13.30;99.90
51559;DHT22;61650;48.882;2.092;2023-05-07T06:12:29;13.30;99.90
51559;DHT22;61650;48.882;2.092;2023-05-07T06:14:54;13.30;99.90
51559;DHT22;61650;48.882;2.092;2023-05-07T06:17:20;13.30;99.90
51559;DHT22;61650;48.882;2.092;2023-05-07T06:19:45;13.30;99.90
51559;DHT22;61650;48.882;2.092;2023-05-07T06:22:11;13.40;99.90
51559;DHT22;61650;48.882;2.092;2023-05-07T06:24:36;13.40;99.90
51559;DHT22;61650;48.882;2.092;2023-05-07T06:27:02;13.40;99.90
51559;DHT22;61650;48.882;2.092;2023-05-07T06:29:28;13.40;99.90
51559;DHT22;61650;48.882;2.092;2023-05-07T06:31:55;13.40;99.90
51559;DHT22;61650;48.882;2.092;2023-05-07T06:34:21;13.50;99.90
51559;DHT22;61650;48.882;2.092;2023-05-07T06:36:46;13.50;99.90
51559;DHT22;61650;48.882;2.092;2023-05-07T06:39:12;13.50;99.90
51559;DHT22;61650;48.882;2.092;2023-05-07T06:41:37;13.60;99.90
51559;DHT22;61650;48.882;2.092;2023-05-07T06:44:04;13.60;99.90
51559;DHT22;61650;48.882;2.092;2023-05-07T06:46:30;13.60;99.90
51559;DHT22;61650;48.882;2.092;2023-05-07T06:48:56;13.60;99.90
51559;DHT22;61650;48.882;2.092;2023-05-07T06:51:22;13.70;99.90
51559;DHT22;61650;48.882;2.092;2023-05-07T06:53:48;13.70;99.90
51559;DHT22;61650;48.882;2.092;2023-05-07T06:56:13;13.70;99.90
51559;DHT22;61650;48.882;2.092;2023-05-07T06:58:39;13.70;99.90
51559;DHT22;61650;48.882;2.092;2023-05-07T07:01:05;13.70;99.90
51559;DHT22;61650;48.882;2.092;2023-05-07T07:03:30;13.90;99.90
51559;DHT22;61650;48.882;2.092;2023-05-07T07:05:56;13.80;99.90
51559;DHT22;61650;48.882;2.092;2023-05-07T07:08:22;13.80;99.90
51559;DHT22;61650;48.882;2.092;2023-05-07T07:10:48;13.80;99.90
51559;DHT22;61650;48.882;2.092;2023-05-07T07:13:14;13.80;99.90
51559;DHT22;61650;48.882;2.092;2023-05-07T07:15:40;13.80;99.90
51559;DHT22;61650;48.882;2.092;2023-05-07T07:18:06;13.80;99.90
51559;DHT22;61650;48.882;2.092;2023-05-07T07:20:31;13.80;99.90
51559;DHT22;61650;48.882;2.092;2023-05-07T07:22:57;13.80;99.90
51559;DHT22;61650;48.882;2.092;2023-05-07T07:25:23;13.90;99.90
51559;DHT22;61650;48.882;2.092;2023-05-07T07:27:49;14.00;99.90
51559;DHT22;61650;48.882;2.092;2023-05-07T07:30:15;14.00;99.90
51559;DHT22;61650;48.882;2.092;2023-05-07T07:32:41;14.00;99.90
51559;DHT22;61650;48.882;2.092;2023-05-07T07:35:07;14.00;99.90
51559;DHT22;61650;48.882;2.092;2023-05-07T07:37:32;14.00;99.90
51559;DHT22;61650;48.882;2.092;2023-05-07T07:39:58;14.00;99.90
51559;DHT22;61650;48.882;2.092;2023-05-07T07:42:24;14.10;99.90
51559;DHT22;61650;48.882;2.092;2023-05-07T07:44:49;14.10;99.90
51559;DHT22;61650;48.882;2.092;2023-05-07T07:47:15;14.10;99.90
51559;DHT22;61650;48.882;2.092;2023-05-07T07:49:41;14.20;99.90
51559;DHT22;61650;48.882;2.092;2023-05-07T07:52:06;14.30;99.90
51559;DHT22;61650;48.882;2.092;2023-05-07T07:54:32;14.30;99.90
51559;DHT22;61650;48.882;2.092;2023-05-07T07:56:58;14.30;99.90
51559;DHT22;61650;48.882;2.092;2023-05-07T07:59:23;14.40;99.90
51559;DHT22;61650;48.882;2.092;2023-05-07T08:01:49;14.50;99.90
51559;DHT22;61650;48.882;2.092;2023-05-07T08:04:17;14.60;99.90
51559;DHT22;61650;48.882;2.092;2023-05-07T08:06:42;14.60;99.90
51559;DHT22;61650;48.882;2.092;2023-05-07T08:09:08;14.60;99.90
51559;DHT22;61650;48.882;2.092;2023-05-07T08:11:34;14.60;99.90
51559;DHT22;61650;48.882;2.092;2023-05-07T08:13:59;14.70;99.90
51559;DHT22;61650;48.882;2.092;2023-05-07T08:16:25;14.70;99.90
51559;DHT22;61650;48.882;2.092;2023-05-07T08:18:51;14.70;99.90
51559;DHT22;61650;48.882;2.092;2023-05-07T08:21:16;14.70;99.90
51559;DHT22;61650;48.882;2.092;2023-05-07T08:23:42;14.70;99.90
51559;DHT22;61650;48.882;2.092;2023-05-07T08:26:08;14.80;99.90
51559;DHT22;61650;48.882;2.092;2023-05-07T08:28:34;14.80;99.90
51559;DHT22;61650;48.882;2.092;2023-05-07T08:31:00;14.80;99.90
51559;DHT22;61650;48.882;2.092;2023-05-07T08:33:26;14.90;99.90
51559;DHT22;61650;48.882;2.092;2023-05-07T08:35:52;14.90;99.90
51559;DHT22;61650;48.882;2.092;2023-05-07T08:38:17;14.90;99.90
51559;DHT22;61650;48.882;2.092;2023-05-07T08:40:43;15.00;99.90
51559;DHT22;61650;48.882;2.092;2023-05-07T08:43:08;15.00;99.90
51559;DHT22;61650;48.882;2.092;2023-05-07T08:45:39;15.00;99.90
51559;DHT22;61650;48.882;2.092;2023-05-07T08:48:09;14.90;99.90
51559;DHT22;61650;48.882;2.092;2023-05-07T08:50:36;14.90;99.90
51559;DHT22;61650;48.882;2.092;2023-05-07T08:53:03;14.90;99.90
51559;DHT22;61650;48.882;2.092;2023-05-07T08:55:29;14.90;99.90
51559;DHT22;61650;48.882;2.092;2023-05-07T08:57:55;14.90;99.90
51559;DHT22;61650;48.882;2.092;2023-05-07T09:00:21;14.90;99.90
51559;DHT22;61650;48.882;2.092;2023-05-07T09:02:47;14.90;99.90
51559;DHT22;61650;48.882;2.092;2023-05-07T09:05:13;14.90;99.90
51559;DHT22;61650;48.882;2.092;2023-05-07T09:07:38;14.90;99.90
51559;DHT22;61650;48.882;2.092;2023-05-07T09:10:05;14.90;99.90
51559;DHT22;61650;48.882;2.092;2023-05-07T09:12:31;14.90;99.90
51559;DHT22;61650;48.882;2.092;2023-05-07T09:14:56;14.90;99.90
51559;DHT22;61650;48.882;2.092;2023-05-07T09:17:22;14.90;99.90
51559;DHT22;61650;48.882;2.092;2023-05-07T09:19:48;14.90;99.90
51559;DHT22;61650;48.882;2.092;2023-05-07T09:22:13;15.00;99.90
51559;DHT22;61650;48.882;2.092;2023-05-07T09:24:39;15.10;99.90
51559;DHT22;61650;48.882;2.092;2023-05-07T09:27:06;15.20;99.90
51559;DHT22;61650;48.882;2.092;2023-05-07T09:29:31;15.30;99.90
51559;DHT22;61650;48.882;2.092;2023-05-07T09:32:07;15.30;99.90
51559;DHT22;61650;48.882;2.092;2023-05-07T09:34:33;15.20;99.90
51559;DHT22;61650;48.882;2.092;2023-05-07T09:37:01;15.30;99.90
51559;DHT22;61650;48.882;2.092;2023-05-07T09:39:44;15.30;99.90
51559;DHT22;61650;48.882;2.092;2023-05-07T09:42:10;15.40;99.90
51559;DHT22;61650;48.882;2.092;2023-05-07T09:44:37;15.40;99.90
51559;DHT22;61650;48.882;2.092;2023-05-07T09:47:06;15.40;99.90
51559;DHT22;61650;48.882;2.092;2023-05-07T09:49:37;15.30;99.90
51559;DHT22;61650;48.882;2.092;2023-05-07T09:52:06;15.20;99.90
51559;DHT22;61650;48.882;2.092;2023-05-07T09:54:34;15.10;99.90
51559;DHT22;61650;48.882;2.092;2023-05-07T09:57:01;15.00;99.90
51559;DHT22;61650;48.882;2.092;2023-05-07T09:59:31;15.00;99.90
51559;DHT22;61650;48.882;2.092;2023-05-07T10:01:58;15.00;99.90
51559;DHT22;61650;48.882;2.092;2023-05-07T10:04:25;15.00;99.90
51559;DHT22;61650;48.882;2.092;2023-05-07T10:06:52;14.90;99.90
51559;DHT22;61650;48.882;2.092;2023-05-07T10:09:18;14.90;99.90
51559;DHT22;61650;48.882;2.092;2023-05-07T10:11:43;15.00;99.90
51559;DHT22;61650;48.882;2.092;2023-05-07T10:14:10;15.00;99.90
51559;DHT22;61650;48.882;2.092;2023-05-07T10:16:36;15.10;99.90
51559;DHT22;61650;48.882;2.092;2023-05-07T10:19:03;15.10;99.90
51559;DHT22;61650;48.882;2.092;2023-05-07T10:21:30;15.20;99.90
51559;DHT22;61650;48.882;2.092;2023-05-07T10:24:04;15.20;99.90
51559;DHT22;61650;48.882;2.092;2023-05-07T10:26:32;15.20;99.90
51559;DHT22;61650;48.882;2.092;2023-05-07T10:29:03;15.20;99.90
51559;DHT22;61650;48.882;2.092;2023-05-07T10:33:56;15.20;99.90
51559;DHT22;61650;48.882;2.092;2023-05-07T10:36:23;15.20;99.90
51559;DHT22;61650;48.882;2.092;2023-05-07T10:38:49;15.20;99.90
51559;DHT22;61650;48.882;2.092;2023-05-07T10:41:15;15.20;99.90
51559;DHT22;61650;48.882;2.092;2023-05-07T10:43:44;15.20;99.90
51559;DHT22;61650;48.882;2.092;2023-05-07T10:46:18;15.30;99.90
51559;DHT22;61650;48.882;2.092;2023-05-07T10:51:29;15.50;99.90
51559;DHT22;61650;48.882;2.092;2023-05-07T10:56:43;15.70;99.90
51559;DHT22;61650;48.882;2.092;2023-05-07T11:01:59;15.70;99.90
51559;DHT22;61650;48.882;2.092;2023-05-07T11:04:27;15.60;99.90
51559;DHT22;61650;48.882;2.092;2023-05-07T11:15:08;15.40;99.90
51559;DHT22;61650;48.882;2.092;2023-05-07T11:17:51;15.50;99.90
51559;DHT22;61650;48.882;2.092;2023-05-07T11:20:17;15.70;99.90
51559;DHT22;61650;48.882;2.092;2023-05-07T11:22:43;15.90;99.90
51559;DHT22;61650;48.882;2.092;2023-05-07T11:25:08;16.00;99.90
51559;DHT22;61650;48.882;2.092;2023-05-07T11:27:34;16.00;99.90
51559;DHT22;61650;48.882;2.092;2023-05-07T11:30:00;15.90;99.90
51559;DHT22;61650;48.882;2.092;2023-05-07T11:32:31;16.10;99.90
51559;DHT22;61650;48.882;2.092;2023-05-07T11:35:00;16.00;99.90
51559;DHT22;61650;48.882;2.092;2023-05-07T11:37:27;15.90;99.90
51559;DHT22;61650;48.882;2.092;2023-05-07T11:40:09;15.90;99.90
51559;DHT22;61650;48.882;2.092;2023-05-07T11:42:41;16.00;99.90
51559;DHT22;61650;48.882;2.092;2023-05-07T11:45:08;16.10;99.90
51559;DHT22;61650;48.882;2.092;2023-05-07T11:47:34;16.10;99.90
51559;DHT22;61650;48.882;2.092;2023-05-07T11:50:07;16.20;99.90
51559;DHT22;61650;48.882;2.092;2023-05-07T11:52:34;16.20;99.90
51559;DHT22;61650;48.882;2.092;2023-05-07T11:55:00;16.20;99.90
51559;DHT22;61650;48.882;2.092;2023-05-07T11:57:27;16.20;99.90
51559;DHT22;61650;48.882;2.092;2023-05-07T11:59:57;16.20;99.90
51559;DHT22;61650;48.882;2.092;2023-05-07T12:02:24;16.10;99.90
51559;DHT22;61650;48.882;2.092;2023-05-07T12:04:54;16.00;99.90
51559;DHT22;61650;48.882;2.092;2023-05-07T12:07:20;15.90;99.90
51559;DHT22;61650;48.882;2.092;2023-05-07T12:09:46;15.90;99.90
51559;DHT22;61650;48.882;2.092;2023-05-07T12:12:13;15.80;99.90
51559;DHT22;61650;48.882;2.092;2023-05-07T12:14:45;15.70;99.90
51559;DHT22;61650;48.882;2.092;2023-05-07T12:17:12;15.60;99.90
51559;DHT22;61650;48.882;2.092;2023-05-07T12:19:39;15.60;99.90
51559;DHT22;61650;48.882;2.092;2023-05-07T12:22:08;15.60;99.90
51559;DHT22;61650;48.882;2.092;2023-05-07T12:24:48;15.60;99.90
51559;DHT22;61650;48.882;2.092;2023-05-07T12:27:15;15.70;99.90
51559;DHT22;61650;48.882;2.092;2023-05-07T12:29:47;15.70;99.90
51559;DHT22;61650;48.882;2.092;2023-05-07T12:32:18;15.70;99.90
51559;DHT22;61650;48.882;2.092;2023-05-07T12:34:44;15.80;99.90
51559;DHT22;61650;48.882;2.092;2023-05-07T12:37:10;15.70;99.90
51559;DHT22;61650;48.882;2.092;2023-05-07T12:39:36;15.70;99.90
51559;DHT22;61650;48.882;2.092;2023-05-07T12:42:02;15.70;99.90
51559;DHT22;61650;48.882;2.092;2023-05-07T12:44:34;15.60;99.90
51559;DHT22;61650;48.882;2.092;2023-05-07T12:47:03;15.60;99.90
51559;DHT22;61650;48.882;2.092;2023-05-07T12:49:29;15.50;99.90
51559;DHT22;61650;48.882;2.092;2023-05-07T12:51:55;15.40;99.90
51559;DHT22;61650;48.882;2.092;2023-05-07T12:54:31;15.30;99.90
51559;DHT22;61650;48.882;2.092;2023-05-07T12:57:05;15.20;99.90
51559;DHT22;61650;48.882;2.092;2023-05-07T12:59:42;15.10;99.90
51559;DHT22;61650;48.882;2.092;2023-05-07T13:02:08;15.10;99.90
51559;DHT22;61650;48.882;2.092;2023-05-07T13:04:34;15.00;99.90
51559;DHT22;61650;48.882;2.092;2023-05-07T13:07:01;14.80;99.90
51559;DHT22;61650;48.882;2.092;2023-05-07T13:09:27;14.80;99.90
51559;DHT22;61650;48.882;2.092;2023-05-07T13:11:54;14.80;99.90
51559;DHT22;61650;48.882;2.092;2023-05-07T13:14:20;14.90;99.90
51559;DHT22;61650;48.882;2.092;2023-05-07T13:16:49;14.90;99.90
51559;DHT22;61650;48.882;2.092;2023-05-07T13:19:14;15.00;99.90
51559;DHT22;61650;48.882;2.092;2023-05-07T13:21:40;15.10;99.90
51559;DHT22;61650;48.882;2.092;2023-05-07T13:24:06;15.20;99.90
51559;DHT22;61650;48.882;2.092;2023-05-07T13:26:32;15.30;99.90
51559;DHT22;61650;48.882;2.092;2023-05-07T13:28:57;15.40;99.90
51559;DHT22;61650;48.882;2.092;2023-05-07T13:31:24;15.50;99.90
51559;DHT22;61650;48.882;2.092;2023-05-07T13:33:50;15.70;99.90
51559;DHT22;61650;48.882;2.092;2023-05-07T13:36:16;15.60;99.90
51559;DHT22;61650;48.882;2.092;2023-05-07T13:38:41;15.70;99.90
51559;DHT22;61650;48.882;2.092;2023-05-07T13:41:07;15.60;99.90
51559;DHT22;61650;48.882;2.092;2023-05-07T13:43:32;15.70;99.90
51559;DHT22;61650;48.882;2.092;2023-05-07T13:45:59;15.60;99.90
51559;DHT22;61650;48.882;2.092;2023-05-07T13:48:25;15.50;99.90
51559;DHT22;61650;48.882;2.092;2023-05-07T13:50:50;15.50;99.90
51559;DHT22;61650;48.882;2.092;2023-05-07T13:53:17;15.60;99.90
51559;DHT22;61650;48.882;2.092;2023-05-07T13:55:46;15.70;99.90
51559;DHT22;61650;48.882;2.092;2023-05-07T13:58:12;15.80;99.90
51559;DHT22;61650;48.882;2.092;2023-05-07T14:00:37;15.80;99.90
51559;DHT22;61650;48.882;2.092;2023-05-07T14:03:04;15.90;99.90
51559;DHT22;61650;48.882;2.092;2023-05-07T14:05:30;16.00;99.90
51559;DHT22;61650;48.882;2.092;2023-05-07T14:07:57;16.20;99.90
51559;DHT22;61650;48.882;2.092;2023-05-07T14:10:23;16.40;99.90
51559;DHT22;61650;48.882;2.092;2023-05-07T14:12:49;16.50;99.90
51559;DHT22;61650;48.882;2.092;2023-05-07T14:15:15;16.30;99.90
51559;DHT22;61650;48.882;2.092;2023-05-07T14:17:41;16.20;99.90
51559;DHT22;61650;48.882;2.092;2023-05-07T14:20:07;16.30;99.90
51559;DHT22;61650;48.882;2.092;2023-05-07T14:22:33;16.40;99.90
51559;DHT22;61650;48.882;2.092;2023-05-07T14:25:02;16.40;99.90
51559;DHT22;61650;48.882;2.092;2023-05-07T14:27:27;16.60;99.90
51559;DHT22;61650;48.882;2.092;2023-05-07T14:29:53;16.50;99.90
51559;DHT22;61650;48.882;2.092;2023-05-07T14:32:18;16.60;99.90
51559;DHT22;61650;48.882;2.092;2023-05-07T14:34:45;16.90;99.90
51559;DHT22;61650;48.882;2.092;2023-05-07T14:37:11;17.00;99.90
51559;DHT22;61650;48.882;2.092;2023-05-07T14:39:37;17.20;99.90
51559;DHT22;61650;48.882;2.092;2023-05-07T14:42:03;17.30;99.90
51559;DHT22;61650;48.882;2.092;2023-05-07T14:44:28;17.40;99.90
51559;DHT22;61650;48.882;2.092;2023-05-07T14:46:54;17.50;99.90
51559;DHT22;61650;48.882;2.092;2023-05-07T14:49:20;17.50;99.90
51559;DHT22;61650;48.882;2.092;2023-05-07T14:51:46;17.50;99.90
51559;DHT22;61650;48.882;2.092;2023-05-07T14:54:15;17.70;99.90
51559;DHT22;61650;48.882;2.092;2023-05-07T14:56:41;17.20;99.90
51559;DHT22;61650;48.882;2.092;2023-05-07T14:59:07;16.60;99.90
51559;DHT22;61650;48.882;2.092;2023-05-07T15:01:36;16.10;99.90
51559;DHT22;61650;48.882;2.092;2023-05-07T15:04:05;15.80;99.90
51559;DHT22;61650;48.882;2.092;2023-05-07T15:06:31;15.60;99.90
51559;DHT22;61650;48.882;2.092;2023-05-07T15:08:57;15.40;99.90
51559;DHT22;61650;48.882;2.092;2023-05-07T15:11:22;15.40;99.90
51559;DHT22;61650;48.882;2.092;2023-05-07T15:13:49;15.40;99.90
51559;DHT22;61650;48.882;2.092;2023-05-07T15:16:14;15.60;99.90
51559;DHT22;61650;48.882;2.092;2023-05-07T15:18:40;15.70;99.90
51559;DHT22;61650;48.882;2.092;2023-05-07T15:21:06;15.60;99.90
51559;DHT22;61650;48.882;2.092;2023-05-07T15:23:31;15.70;99.90
51559;DHT22;61650;48.882;2.092;2023-05-07T15:25:57;15.80;99.90
51559;DHT22;61650;48.882;2.092;2023-05-07T15:28:22;15.90;99.90
51559;DHT22;61650;48.882;2.092;2023-05-07T15:30:49;16.10;99.90
51559;DHT22;61650;48.882;2.092;2023-05-07T15:33:15;16.20;99.90
51559;DHT22;61650;48.882;2.092;2023-05-07T15:35:41;15.90;99.90
51559;DHT22;61650;48.882;2.092;2023-05-07T15:38:06;15.90;99.90
51559;DHT22;61650;48.882;2.092;2023-05-07T15:40:34;15.90;99.90
51559;DHT22;61650;48.882;2.092;2023-05-07T15:43:00;15.90;99.90
51559;DHT22;61650;48.882;2.092;2023-05-07T15:45:26;15.90;99.90